Flight Track Log - Related Links

Times and Time Zones

All times are in EDT time to prevent confusion due to time zone crossing. See the UAL4086 flight status page for this flight to view local times or setup timezone preferences in your user account.

Time Position Orientation Groundspeed Altitude Reporting Facility
EDT Latitude Longitude Course Direction KTS MPH feet Rate Location/Type
Tue 06:10:46 AM 39.0500 -84.6833 208° Southwest 163 188 1,400  Level Cincinnati TRACON
Tue 06:11:04 AM 39.0500 -84.7000 270° West 162 186 2,300 2,333 Climbing Cincinnati TRACON
Tue 06:11:58 AM 39.0000 -84.7333 207° Southwest 221 254 4,200 2,473 Climbing Cincinnati TRACON
Tue 06:14:00 AM 38.6793 -84.8360 208° Southwest  Level FlightAware Approximate
Tue 06:14:06 AM 38.8797 -84.7942 201° Southwest 244 281 9,800  Level Indianapolis Center
Tue 06:15:00 AM 38.5931 -84.8935 208° Southwest  Level FlightAware Approximate
Tue 06:15:07 AM 38.8028 -84.8289 199° South 293 337 10,800  Level Indianapolis Center
Tue 06:16:07 AM 38.7092 -84.8731 200° South 334 384 12,300 1,636 Climbing Indianapolis Center
Tue 06:17:08 AM 38.6053 -84.9214 200° South 353 406 14,100 1,686 Climbing Indianapolis Center
Tue 06:18:08 AM 38.5142 -84.9825 208° Southwest 370 426 15,700 1,587 Climbing Indianapolis Center
Tue 06:19:09 AM 38.4711 -85.0958 244° Southwest 361 415 17,300 1,736 Climbing Indianapolis Center
Tue 06:20:09 AM 38.4311 -85.2142 247° West 362 417 19,200 1,983 Climbing Indianapolis Center
Tue 06:21:10 AM 38.3961 -85.3194 247° West 355 409 21,300 2,164 Climbing Indianapolis Center
Tue 06:22:11 AM 38.3592 -85.4306 247° West 343 395 23,600 2,281 Climbing Indianapolis Center
Tue 06:23:11 AM 38.3225 -85.5389 247° West 332 382 25,900 2,132 Climbing Indianapolis Center
Tue 06:24:12 AM 38.2872 -85.6444 247° West 326 375 27,900 1,983 Climbing Indianapolis Center
Tue 06:25:12 AM 38.2519 -85.7489 247° West 320 368 29,900 1,835 Climbing Indianapolis Center
Tue 06:26:13 AM 38.2169 -85.8503 246° West 314 361 31,600 1,623 Climbing Indianapolis Center
Tue 06:27:14 AM 38.1828 -85.9517 247° West 312 359 33,200 1,279 Climbing Indianapolis Center
Tue 06:28:15 AM 38.1489 -86.0542 247° West 314 361 34,200 992 Climbing Indianapolis Center
Tue 06:29:15 AM 38.1125 -86.1592 246° West 322 371 35,200 893 Climbing Indianapolis Center
Tue 06:30:16 AM 38.0756 -86.2656 246° West 327 376 36,000 393 Climbing Indianapolis Center
Tue 06:31:17 AM 38.0369 -86.3786 247° West 341 392 36,000  Level Indianapolis Center
Tue 06:32:17 AM 37.9944 -86.5003 246° West 367 422 36,000  Level Indianapolis Center
Tue 06:33:18 AM 37.9497 -86.6297 246° West 390 449 36,000  Level Indianapolis Center
Tue 06:34:18 AM 37.9042 -86.7589 246° West 396 456 36,000  Level Indianapolis Center
Tue 06:35:19 AM 37.8583 -86.8878 246° West 398 458 36,000  Level Indianapolis Center
Tue 06:36:20 AM 37.8131 -87.0158 246° West 396 456 36,000  Level Indianapolis Center
Tue 06:37:20 AM 37.7672 -87.1442 246° West 397 457 36,000  Level Indianapolis Center
Tue 06:38:21 AM 37.7219 -87.2736 246° West 396 456 36,000  Level Indianapolis Center
Tue 06:39:22 AM 37.6767 -87.4006 246° West 395 455 36,000  Level Indianapolis Center
Tue 06:40:23 AM 37.6317 -87.5269 246° West 394 453 36,000  Level Indianapolis Center
Tue 06:41:05 AM 37.5936 -87.6300 245° Southwest 399 459 36,000  Level Memphis Center
Tue 06:42:05 AM 37.5542 -87.7436 246° West 399 459 36,000  Level Memphis Center
Tue 06:43:05 AM 37.5133 -87.8733 248° West 399 459 36,000  Level Memphis Center
Tue 06:44:05 AM 37.4614 -87.9925 241° Southwest 399 459 36,000  Level Memphis Center
Tue 06:45:05 AM 37.3694 -88.0917 221° Southwest 393 452 36,000  Level Memphis Center
Tue 06:46:05 AM 37.2794 -88.1750 216° Southwest 396 456 36,000  Level Memphis Center
Tue 06:47:05 AM 37.1892 -88.2583 216° Southwest 406 467 36,000  Level Memphis Center
Tue 06:48:05 AM 37.0967 -88.3389 215° Southwest 411 473 36,000  Level Memphis Center
Tue 06:49:05 AM 37.0042 -88.4242 216° Southwest 411 473 36,000  Level Memphis Center
Tue 06:50:05 AM 36.9117 -88.5069 216° Southwest 411 473 36,000  Level Memphis Center
Tue 06:51:05 AM 36.8214 -88.5867 215° Southwest 411 473 36,000  Level Memphis Center
Tue 06:52:05 AM 36.7286 -88.6742 217° Southwest 417 480 36,000  Level Memphis Center
Tue 06:53:05 AM 36.6361 -88.7564 216° Southwest 417 480 36,000  Level Memphis Center
Tue 06:54:05 AM 36.5433 -88.8383 215° Southwest 417 480 36,000  Level Memphis Center
Tue 06:55:05 AM 36.4506 -88.9200 215° Southwest 417 480 36,000  Level Memphis Center
Tue 06:56:05 AM 36.3575 -89.0014 215° Southwest 417 480 36,000  Level Memphis Center
Tue 06:57:05 AM 36.2625 -89.0828 215° Southwest 417 480 36,000  Level Memphis Center
Tue 06:58:05 AM 36.1694 -89.1667 216° Southwest 417 480 36,000  Level Memphis Center
Tue 06:59:05 AM 36.0764 -89.2503 216° Southwest 417 480 36,000  Level Memphis Center
Tue 07:00:05 AM 35.9936 -89.3231 215° Southwest 417 480 36,000  Level Memphis Center
Tue 07:01:05 AM 35.9006 -89.4064 216° Southwest 417 480 36,000  Level Memphis Center
Tue 07:02:05 AM 35.8114 -89.4867 216° Southwest 417 480 36,000  Level Memphis Center
Tue 07:03:05 AM 35.7161 -89.5694 215° Southwest 417 480 36,000  Level Memphis Center
Tue 07:04:05 AM 35.6311 -89.6494 217° Southwest 406 467 36,000  Level Memphis Center
Tue 07:05:05 AM 35.5378 -89.7294 215° Southwest 406 467 36,000  Level Memphis Center
Tue 07:06:05 AM 35.4464 -89.8092 215° Southwest 406 467 36,000  Level Memphis Center
Tue 07:07:05 AM 35.3528 -89.8911 216° Southwest 411 473 36,000  Level Memphis Center
Tue 07:08:05 AM 35.2611 -89.9731 216° Southwest 411 473 36,000  Level Memphis Center
Tue 07:09:05 AM 35.1675 -90.0547 216° Southwest 411 473 36,000  Level Memphis Center
Tue 07:10:05 AM 35.0719 -90.1364 215° Southwest 417 480 36,000  Level Memphis Center
Tue 07:11:05 AM 34.9761 -90.2203 216° Southwest 422 486 36,000  Level Memphis Center
Tue 07:12:05 AM 34.8717 -90.3089 215° Southwest 422 486 36,000  Level Memphis Center
Tue 07:13:05 AM 34.7778 -90.3875 215° Southwest 422 486 36,000  Level Memphis Center
Tue 07:14:05 AM 34.6819 -90.4683 215° Southwest 422 486 36,000  Level Memphis Center
Tue 07:15:05 AM 34.5900 -90.5464 215° Southwest 417 480 36,000  Level Memphis Center
Tue 07:16:05 AM 34.4981 -90.6242 215° Southwest 417 480 36,000  Level Memphis Center
Tue 07:17:05 AM 34.4061 -90.6994 214° Southwest 410 472 36,000  Level Memphis Center
Tue 07:18:05 AM 34.3161 -90.7772 216° Southwest 410 472 36,000  Level Memphis Center
Tue 07:19:05 AM 34.2219 -90.8519 213° Southwest 405 466 36,000  Level Memphis Center
Tue 07:20:05 AM 34.1317 -90.9269 215° Southwest 405 466 36,000  Level Memphis Center
Tue 07:21:05 AM 34.0394 -91.0064 216° Southwest 405 466 36,000  Level Memphis Center
Tue 07:22:05 AM 33.9472 -91.0833 215° Southwest 405 466 36,000  Level Memphis Center
Tue 07:23:05 AM 33.8550 -91.1575 214° Southwest 405 466 36,000  Level Memphis Center
Tue 07:24:05 AM 33.7628 -91.2342 215° Southwest 405 466 36,000  Level Memphis Center
Tue 07:25:05 AM 33.6725 -91.3108 215° Southwest 405 466 36,000  Level Memphis Center
Tue 07:26:05 AM 33.5800 -91.3869 214° Southwest 405 466 36,000  Level Memphis Center
Tue 07:27:05 AM 33.4875 -91.4606 214° Southwest 405 466 36,000  Level Memphis Center
Tue 07:28:05 AM 33.4033 -91.5292 214° Southwest 405 466 36,000  Level Memphis Center
Tue 07:30:27 AM 33.1781 -91.7178 215° Southwest 394 453 36,000  Level Fort Worth Center
Tue 07:31:27 AM 33.0975 -91.7825 214° Southwest 419 482 36,000  Level Fort Worth Center
Tue 07:32:27 AM 32.9886 -91.8686 214° Southwest 413 475 36,000  Level Fort Worth Center
Tue 07:33:27 AM 32.8961 -91.9436 214° Southwest 413 475 36,000  Level Fort Worth Center
Tue 07:34:27 AM 32.7992 -92.0186 213° Southwest 404 465 36,000  Level Fort Worth Center
Tue 07:36:08 AM 32.6561 -92.1339 214° Southwest 403 464 36,000  Level Houston Center
Tue 07:37:09 AM 32.5636 -92.2083 214° Southwest 402 463 36,000  Level Houston Center
Tue 07:38:10 AM 32.4714 -92.2828 214° Southwest 401 461 36,000  Level Houston Center
Tue 07:39:11 AM 32.3608 -92.3708 214° Southwest 400 460 36,000  Level Houston Center
Tue 07:40:12 AM 32.2681 -92.4450 214° Southwest 403 464 36,000  Level Houston Center
Tue 07:41:13 AM 32.1761 -92.5167 213° Southwest 399 459 36,000  Level Houston Center
Tue 07:42:14 AM 32.0839 -92.5903 214° Southwest 400 460 36,000  Level Houston Center
Tue 07:43:15 AM 31.9919 -92.6625 214° Southwest 399 459 36,000  Level Houston Center
Tue 07:44:16 AM 31.9061 -92.7436 219° Southwest 399 459 36,000  Level Houston Center
Tue 07:45:17 AM 31.8225 -92.8239 219° Southwest 392 451 36,000  Level Houston Center
Tue 07:46:18 AM 31.7386 -92.9064 220° Southwest 394 453 36,000  Level Houston Center
Tue 07:47:19 AM 31.6561 -92.9850 219° Southwest 385 443 36,000  Level Houston Center
Tue 07:48:20 AM 31.5575 -93.0806 220° Southwest 384 442 36,000  Level Houston Center
Tue 07:49:21 AM 31.4753 -93.1592 219° Southwest 382 440 36,000  Level Houston Center
Tue 07:50:22 AM 31.3925 -93.2372 219° Southwest 384 442 36,000  Level Houston Center
Tue 07:51:23 AM 31.3106 -93.3158 219° Southwest 383 441 36,000 -390 Level Houston Center
Tue 07:52:25 AM 31.2261 -93.3953 219° Southwest 388 447 35,200 -878 Descending Houston Center
Tue 07:53:26 AM 31.1419 -93.4753 219° Southwest 391 450 34,200 -1,131 Descending Houston Center
Tue 07:54:27 AM 31.0564 -93.5569 219° Southwest 398 458 32,900 -1,623 Descending Houston Center
Tue 07:55:28 AM 30.9703 -93.6375 219° Southwest 399 459 30,900 -2,016 Descending Houston Center
Tue 07:56:29 AM 30.8833 -93.7197 219° Southwest 400 460 28,800 -2,311 Descending Houston Center
Tue 07:57:30 AM 30.7786 -93.8200 219° Southwest 402 463 26,200 -2,341 Descending Houston Center
Tue 07:58:32 AM 30.6922 -93.9011 219° Southwest 400 460 24,000 -2,049 Descending Houston Center
Tue 07:59:33 AM 30.6114 -93.9767 219° Southwest 373 429 22,000 -2,000 Descending Houston Center
Tue 07:59:50 AM 30.5903 -93.9969 220° Southwest 368 423 21,400 -2,111 Descending Houston Center
Tue 08:00:27 AM 30.5383 -94.0453 219° Southwest 370 426 20,100 -2,019 Descending Houston Center
Tue 08:01:34 AM 30.4481 -94.1303 219° Southwest 370 426 17,900 -1,918 Descending Houston Center
Tue 08:02:29 AM 30.3769 -94.1956 218° Southwest 367 422 16,200 -1,967 Descending Houston Center
Tue 08:03:36 AM 30.2867 -94.2803 219° Southwest 362 417 13,900 -1,934 Descending Houston Center
Tue 08:04:30 AM 30.2214 -94.3422 219° Southwest 323 372 12,300 -1,645 Descending Houston Center
Tue 08:05:40 AM 30.1842 -94.4386 246° West 328 377 10,500 -1,190 Descending Houston Center
Tue 08:06:26 AM 30.1700 -94.5253 259° West 310 357 10,000 -484 Descending Houston Center
Tue 08:06:42 AM 30.1686 -94.5389 263° West 315 362 10,000  Level Houston Center
Tue 08:07:33 AM 30.1528 -94.6292 259° West 312 359 10,000  Level Houston Center
Tue 08:08:34 AM 30.1333 -94.7331 258° West 314 361 10,000  Level Houston Center
Tue 08:09:35 AM 30.1158 -94.8344 259° West 314 361 10,000 -52 Level Houston Center
Tue 08:10:30 AM 30.1050 -94.9203 262° West 271 312 9,900 -333 Descending Houston Center
Tue 08:10:47 AM 30.1061 -94.9444 273° West 295 339 9,600 -985 Descending Houston Center
Tue 08:11:37 AM 30.1056 -95.0144 269° West 268 308 8,800 -976 Descending Houston Center
Tue 08:12:50 AM 30.1069 -95.1150 271° West 270 311 7,600 -1,033 Descending Houston Center
Tue 08:13:39 AM 30.1075 -95.1931 270° West 271 312 6,700 -873 Descending Houston Center
Tue 08:14:40 AM 30.1072 -95.2800 270° West 273 314 6,000 -344 Descending Houston Center
Tue 08:15:41 AM 30.1069 -95.3694 270° West 282 325 6,000 -885 Level Houston Center
Tue 08:16:42 AM 30.1061 -95.4542 269° West 268 308 4,200 -1,426 Descending Houston Center
Tue 08:17:43 AM 30.1058 -95.5433 270° West 259 298 3,100 -590 Descending Houston Center
Tue 08:18:44 AM 30.1072 -95.6303 271° West 269 310 3,000 -49 Descending Houston Center
Tue 08:19:45 AM 30.0956 -95.7114 261° West 259 298 3,000  Level Houston Center
Tue 08:20:00 AM 30.0872 -95.7247 234° Southwest 264 304 3,000  Level Houston Center
Tue 08:20:46 AM 30.0386 -95.7325 188° South 224 258 3,000  Level Houston Center
Tue 08:21:01 AM 30.0247 -95.7303 172° South 242 278 3,000  Level Houston Center
Tue 08:21:47 AM 30.0042 -95.6736 113° Southeast 260 299 3,000  Level Houston Center
Tue 08:22:03 AM 30.0067 -95.6622 76° East 253 291 3,000  Level Houston Center
Tue 08:22:49 AM 30.0069 -95.5889 90° East 266 306 3,000  Level Houston Center
Tue 08:23:04 AM 30.0064 -95.5778 93° East 261 300 3,000 -295 Level Houston Center
Tue 08:23:50 AM 30.0064 -95.5119 90° East 240 276 2,700 -484 Descending Houston Center
Tue 08:24:06 AM 30.0072 -95.4997 85° East 251 289 2,500 -750 Descending Houston Center

Login

Don't have an account? Register now (free) for customized features, flight alerts, and more!